Time;durP1;ratioP1;P1;durP2;ratioP2;P2;SDS_P1;SDS_P2;PMS_P1;PMS_P2;Temp;Humidity;BMP_temperature;BMP_pressure;BME280_temperature;BME280_humidity;BME280_pressure;Samples;Min_cycle;Max_cycle;Signal;HPM_P1;HPM_P2
2024/02/03 07:18:38;;;;;;;;;;;;;;;;;;5965073;23;20239;-91
2024/02/03 17:51:58;;;;;;;;;;;;;;;;;;4935920;29;19958;-91
2024/02/03 17:54:23;;;;;;;;;;;;;;;;;;4937309;29;19922;-92
2024/02/03 17:56:48;;;;;;;;;;;;;;;;;;4936891;29;19919;-95
2024/02/03 17:59:14;;;;;;;;;;;;;;;;;;4936506;29;20404;-96
2024/02/03 18:01:39;;;;;;;;;;;;;;;;;;4938147;29;20370;-95
2024/02/03 18:04:05;;;;;;;;;;;;;;;;;;4937951;29;19915;-92
2024/02/03 18:06:30;;;;;;;;;;;;;;;;;;4936531;29;19915;-95
2024/02/03 18:08:56;;;;;;;;;;;;;;;;;;4936497;29;19953;-95
2024/02/03 18:11:21;;;;;;;;;;;;;;;;;;4936330;29;19915;-93
2024/02/03 18:13:49;;;;;;;;;;;;;;;;;;4936654;29;19962;-94
2024/02/03 18:16:17;;;;;;;;;;;;;;;;;;4935222;29;19915;-93
2024/02/03 18:18:43;;;;;;;;;;;;;;;;;;4936256;29;20289;-88
2024/02/03 18:21:17;;;;;;;;;;;;;;;;;;4938233;29;19921;-92
2024/02/03 18:23:42;;;;;;;;;;;;;;;;;;4938493;29;19922;-95
2024/02/03 18:26:09;;;;;;;;;;;;;;;;;;4936209;29;20370;-93
2024/02/03 18:28:34;;;;;;;;;;;;;;;;;;4936135;29;19919;-95
2024/02/03 18:30:59;;;;;;;;;;;;;;;;;;4935848;29;20432;-93
2024/02/03 18:33:25;;;;;;;;;;;;;;;;;;4937942;29;20015;-92
2024/02/03 18:35:50;;;;;;;;;;;;;;;;;;4936600;29;20274;-96
2024/02/03 18:38:15;;;;;;;;;;;;;;;;;;4935899;29;20673;-93
2024/02/03 18:40:41;;;;;;;;;;;;;;;;;;4937108;29;20289;-92
2024/02/03 18:43:06;;;;;;;;;;;;;;;;;;4936016;29;19915;-92
2024/02/03 18:45:34;;;;;;;;;;;;;;;;;;4937021;29;19936;-92
2024/02/03 18:48:02;;;;;;;;;;;;;;;;;;4936924;29;19914;-92
2024/02/03 18:50:27;;;;;;;;;;;;;;;;;;4935504;29;19915;-92
2024/02/03 18:52:53;;;;;;;;;;;;;;;;;;4935685;29;19914;-93
2024/02/03 18:55:18;;;;;;;;;;;;;;;;;;4935637;29;20377;-93
2024/02/03 18:57:44;;;;;;;;;;;;;;;;;;4937015;29;19997;-92
2024/02/03 19:00:09;;;;;;;;;;;;;;;;;;4936903;29;19914;-92
2024/02/03 19:02:35;;;;;;;;;;;;;;;;;;4936542;29;19922;-92
2024/02/03 19:05:00;;;;;;;;;;;;;;;;;;4936061;29;19914;-93
2024/02/03 19:07:25;;;;;;;;;;;;;;;;;;4936871;29;19954;-93
2024/02/03 19:09:51;;;;;;;;;;;;;;;;;;4936217;29;19937;-94
2024/02/03 19:12:16;;;;;;;;;;;;;;;;;;4935487;29;19926;-93
2024/02/03 19:14:42;;;;;;;;;;;;;;;;;;4935636;29;19919;-93
2024/02/03 19:17:07;;;;;;;;;;;;;;;;;;4935569;29;20006;-93
2024/02/03 19:19:34;;;;;;;;;;;;;;;;;;4936418;29;19915;-94
2024/02/03 19:22:00;;;;;;;;;;;;;;;;;;4942018;29;20277;-93
2024/02/03 19:24:26;;;;;;;;;;;;;;;;;;4939289;29;20353;-91
2024/02/03 19:26:51;;;;;;;;;;;;;;;;;;4939159;29;19921;-91
2024/02/03 19:29:16;;;;;;;;;;;;;;;;;;4938830;29;19915;-92
2024/02/03 19:31:42;;;;;;;;;;;;;;;;;;4938925;29;20005;-92
2024/02/03 19:34:09;;;;;;;;;;;;;;;;;;4940148;29;19922;-91
2024/02/03 19:36:34;;;;;;;;;;;;;;;;;;4940027;29;19918;-92
2024/02/03 19:38:59;;;;;;;;;;;;;;;;;;4940397;29;19970;-92
2024/02/03 19:41:25;;;;;;;;;;;;;;;;;;4938604;29;19914;-93
2024/02/03 19:43:50;;;;;;;;;;;;;;;;;;4940129;29;20013;-90
2024/02/03 19:46:15;;;;;;;;;;;;;;;;;;4940567;29;19914;-92
2024/02/03 19:48:41;;;;;;;;;;;;;;;;;;4938902;29;20017;-92
2024/02/03 19:51:06;;;;;;;;;;;;;;;;;;4940197;29;20344;-92
2024/02/03 19:53:32;;;;;;;;;;;;;;;;;;4940061;29;19915;-92
2024/02/03 19:55:57;;;;;;;;;;;;;;;;;;4940381;29;19958;-91
2024/02/03 19:58:22;;;;;;;;;;;;;;;;;;4939662;29;19914;-91
2024/02/03 20:00:48;;;;;;;;;;;;;;;;;;4939523;29;19915;-92
2024/02/03 20:03:13;;;;;;;;;;;;;;;;;;4939506;29;19918;-91
2024/02/03 20:05:39;;;;;;;;;;;;;;;;;;4938141;29;20372;-92
2024/02/03 20:08:04;;;;;;;;;;;;;;;;;;4938423;29;19962;-93
2024/02/03 20:10:31;;;;;;;;;;;;;;;;;;4938465;29;19923;-93
2024/02/03 20:12:57;;;;;;;;;;;;;;;;;;4930113;29;19922;-93
2024/02/03 20:15:22;;;;;;;;;;;;;;;;;;4934805;29;19915;-92
2024/02/03 20:17:48;;;;;;;;;;;;;;;;;;4938430;29;19918;-91
2024/02/03 20:20:13;;;;;;;;;;;;;;;;;;4939512;29;20002;-92
2024/02/03 20:22:39;;;;;;;;;;;;;;;;;;4938227;29;19914;-93
2024/02/03 20:25:05;;;;;;;;;;;;;;;;;;4919232;29;19919;-92
2024/02/03 20:27:30;;;;;;;;;;;;;;;;;;4931559;29;19965;-91
2024/02/03 20:29:55;;;;;;;;;;;;;;;;;;4942424;29;19925;-91
2024/02/03 20:32:21;;;;;;;;;;;;;;;;;;4939764;29;20345;-92
2024/02/03 20:34:46;;;;;;;;;;;;;;;;;;4934981;29;19922;-93
2024/02/03 20:37:11;;;;;;;;;;;;;;;;;;4945218;29;19922;-92
2024/02/03 20:39:37;;;;;;;;;;;;;;;;;;4936949;29;20282;-93
2024/02/03 20:42:03;;;;;;;;;;;;;;;;;;4937219;29;19925;-93
2024/02/03 20:44:28;;;;;;;;;;;;;;;;;;4937064;29;20456;-93
2024/02/03 20:46:54;;;;;;;;;;;;;;;;;;4937916;29;19941;-93
2024/02/03 20:49:20;;;;;;;;;;;;;;;;;;4938915;29;19958;-93
2024/02/03 20:51:46;;;;;;;;;;;;;;;;;;4937661;29;20293;-93
2024/02/03 20:54:11;;;;;;;;;;;;;;;;;;4937607;29;19921;-93
2024/02/03 20:56:37;;;;;;;;;;;;;;;;;;4931239;29;20326;-93
2024/02/03 20:59:02;;;;;;;;;;;;;;;;;;4934452;29;19928;-92
2024/02/03 21:01:28;;;;;;;;;;;;;;;;;;4925347;29;20306;-92
2024/02/03 21:03:53;;;;;;;;;;;;;;;;;;4937270;29;19957;-90
2024/02/03 21:06:19;;;;;;;;;;;;;;;;;;4936927;29;19921;-92
2024/02/03 21:08:44;;;;;;;;;;;;;;;;;;4931832;29;19938;-92
2024/02/03 21:11:10;;;;;;;;;;;;;;;;;;4928216;29;20274;-92
2024/02/03 21:13:36;;;;;;;;;;;;;;;;;;4938425;29;20005;-91
2024/02/03 21:16:02;;;;;;;;;;;;;;;;;;4933954;29;19915;-92
2024/02/03 21:18:27;;;;;;;;;;;;;;;;;;4936882;29;19926;-90
2024/02/03 21:20:53;;;;;;;;;;;;;;;;;;4937020;29;20076;-92
2024/02/03 21:23:19;;;;;;;;;;;;;;;;;;4937130;29;20273;-93
2024/02/03 21:25:45;;;;;;;;;;;;;;;;;;4937702;29;19915;-90
2024/02/03 21:28:11;;;;;;;;;;;;;;;;;;4935136;29;19946;-86
2024/02/03 21:30:36;;;;;;;;;;;;;;;;;;4925188;29;20289;-86
2024/02/03 21:33:03;;;;;;;;;;;;;;;;;;4936235;29;19915;-86
2024/02/03 21:35:29;;;;;;;;;;;;;;;;;;4936151;29;19956;-86
2024/02/03 21:37:54;;;;;;;;;;;;;;;;;;4937650;29;20270;-86
2024/02/03 21:40:19;;;;;;;;;;;;;;;;;;4935857;29;19915;-87
2024/02/03 21:42:45;;;;;;;;;;;;;;;;;;4936157;29;19966;-87
2024/02/03 21:45:10;;;;;;;;;;;;;;;;;;4937089;29;19921;-87
2024/02/03 21:47:35;;;;;;;;;;;;;;;;;;4938294;29;19930;-91
